sensor_id;sensor_type;location;lat;lon;timestamp;pressure;altitude;pressure_sealevel;temperature;humidity
71643;BME280;59438;45.014;39.006;2022-11-14T00:00:47;102143.91;;;9.99;74.04
71643;BME280;59438;45.014;39.006;2022-11-14T00:03:13;102149.16;;;9.98;74.22
71643;BME280;59438;45.014;39.006;2022-11-14T00:05:41;102136.97;;;9.94;74.02
71643;BME280;59438;45.014;39.006;2022-11-14T00:08:14;102110.88;;;9.80;73.78
71643;BME280;59438;45.014;39.006;2022-11-14T00:10:44;102133.50;;;9.90;74.23
71643;BME280;59438;45.014;39.006;2022-11-14T00:13:11;102122.16;;;9.88;74.46
71643;BME280;59438;45.014;39.006;2022-11-14T00:15:37;102116.16;;;9.78;74.28
71643;BME280;59438;45.014;39.006;2022-11-14T00:18:04;102124.81;;;9.86;73.38
71643;BME280;59438;45.014;39.006;2022-11-14T00:20:31;102116.13;;;9.80;73.75
71643;BME280;59438;45.014;39.006;2022-11-14T00:22:57;102117.81;;;9.85;73.95
71643;BME280;59438;45.014;39.006;2022-11-14T00:25:24;102123.97;;;9.84;73.86
71643;BME280;59438;45.014;39.006;2022-11-14T00:27:52;102118.72;;;9.83;73.62
71643;BME280;59438;45.014;39.006;2022-11-14T00:30:18;102107.44;;;9.76;72.94
71643;BME280;59438;45.014;39.006;2022-11-14T00:32:44;102109.13;;;9.80;73.92
71643;BME280;59438;45.014;39.006;2022-11-14T00:35:11;102107.44;;;9.76;74.07
71643;BME280;59438;45.014;39.006;2022-11-14T00:37:37;102105.69;;;9.75;73.62
71643;BME280;59438;45.014;39.006;2022-11-14T00:40:04;102104.97;;;9.62;73.77
71643;BME280;59438;45.014;39.006;2022-11-14T00:42:31;102108.34;;;9.72;73.68
71643;BME280;59438;45.014;39.006;2022-11-14T00:44:58;102114.47;;;9.73;73.18
71643;BME280;59438;45.014;39.006;2022-11-14T00:47:25;102110.94;;;9.74;72.92
71643;BME280;59438;45.014;39.006;2022-11-14T00:49:51;102111.84;;;9.74;73.74
71643;BME280;59438;45.014;39.006;2022-11-14T00:52:18;102108.38;;;9.69;73.20
71643;BME280;59438;45.014;39.006;2022-11-14T00:54:44;102122.28;;;9.76;73.05
71643;BME280;59438;45.014;39.006;2022-11-14T00:57:10;102111.84;;;9.74;73.67
71643;BME280;59438;45.014;39.006;2022-11-14T00:59:37;102109.22;;;9.74;73.46
71643;BME280;59438;45.014;39.006;2022-11-14T01:02:05;102115.31;;;9.73;72.92
71643;BME280;59438;45.014;39.006;2022-11-14T01:04:31;102103.97;;;9.71;72.60
71643;BME280;59438;45.014;39.006;2022-11-14T01:06:57;102100.50;;;9.71;73.42
71643;BME280;59438;45.014;39.006;2022-11-14T01:09:24;102098.78;;;9.66;73.25
71643;BME280;59438;45.014;39.006;2022-11-14T01:11:50;102109.28;;;9.68;72.94
71643;BME280;59438;45.014;39.006;2022-11-14T01:14:17;102117.09;;;9.69;72.78
71643;BME280;59438;45.014;39.006;2022-11-14T01:16:43;102120.59;;;9.72;73.23
71643;BME280;59438;45.014;39.006;2022-11-14T01:19:11;102124.97;;;9.71;72.53
71643;BME280;59438;45.014;39.006;2022-11-14T01:21:37;102120.59;;;9.72;73.16
71643;BME280;59438;45.014;39.006;2022-11-14T01:24:04;102117.09;;;9.69;72.78
71643;BME280;59438;45.014;39.006;2022-11-14T01:26:31;102117.94;;;9.73;73.33
71643;BME280;59438;45.014;39.006;2022-11-14T01:28:57;102118.81;;;9.75;72.34
71643;BME280;59438;45.014;39.006;2022-11-14T01:31:24;102112.69;;;9.73;72.90
71643;BME280;59438;45.014;39.006;2022-11-14T01:33:52;102103.19;;;9.66;72.73
71643;BME280;59438;45.014;39.006;2022-11-14T01:36:20;102115.38;;;9.70;72.17
71643;BME280;59438;45.014;39.006;2022-11-14T01:38:51;102095.31;;;9.66;72.50
71643;BME280;59438;45.014;39.006;2022-11-14T01:41:17;102094.38;;;9.70;72.48
71643;BME280;59438;45.014;39.006;2022-11-14T01:43:44;102095.25;;;9.69;72.82
71643;BME280;59438;45.014;39.006;2022-11-14T01:46:14;102073.53;;;9.56;72.05
71643;BME280;59438;45.014;39.006;2022-11-14T01:48:44;102075.31;;;9.56;71.79
71643;BME280;59438;45.014;39.006;2022-11-14T01:51:23;102007.53;;;9.17;72.08
71643;BME280;59438;45.014;39.006;2022-11-14T01:53:54;102063.91;;;9.57;72.40
71643;BME280;59438;45.014;39.006;2022-11-14T01:56:24;102074.38;;;9.60;71.89
71643;BME280;59438;45.014;39.006;2022-11-14T01:58:55;102066.66;;;9.43;71.75
71643;BME280;59438;45.014;39.006;2022-11-14T02:01:23;102092.81;;;9.51;71.66
71643;BME280;59438;45.014;39.006;2022-11-14T02:03:51;102098.19;;;9.41;72.37
71643;BME280;59438;45.014;39.006;2022-11-14T02:06:21;102120.88;;;9.42;72.18
71643;BME280;59438;45.014;39.006;2022-11-14T02:08:50;102116.56;;;9.40;72.44
71643;BME280;59438;45.014;39.006;2022-11-14T02:11:17;102099.97;;;9.36;72.72
71643;BME280;59438;45.014;39.006;2022-11-14T02:13:43;102095.63;;;9.34;71.82
71643;BME280;59438;45.014;39.006;2022-11-14T02:16:10;102112.28;;;9.31;72.15
71643;BME280;59438;45.014;39.006;2022-11-14T02:18:37;102093.94;;;9.26;72.35
71643;BME280;59438;45.014;39.006;2022-11-14T02:21:05;102090.47;;;9.24;71.98
71643;BME280;59438;45.014;39.006;2022-11-14T02:23:32;102082.69;;;9.17;72.47
71643;BME280;59438;45.014;39.006;2022-11-14T02:25:58;102097.50;;;9.18;71.42
71643;BME280;59438;45.014;39.006;2022-11-14T02:28:25;102109.81;;;9.10;72.42
71643;BME280;59438;45.014;39.006;2022-11-14T02:30:52;102123.78;;;9.12;72.02
71643;BME280;59438;45.014;39.006;2022-11-14T02:33:18;102109.81;;;9.10;72.02
71643;BME280;59438;45.014;39.006;2022-11-14T02:35:45;102119.44;;;9.07;71.62
71643;BME280;59438;45.014;39.006;2022-11-14T02:38:13;102116.00;;;9.02;71.57
71643;BME280;59438;45.014;39.006;2022-11-14T02:40:39;102116.03;;;8.99;71.75
71643;BME280;59438;45.014;39.006;2022-11-14T02:43:05;102105.63;;;8.92;71.95
71643;BME280;59438;45.014;39.006;2022-11-14T02:45:32;102111.72;;;8.91;71.83
71643;BME280;59438;45.014;39.006;2022-11-14T02:47:58;102117.88;;;8.90;72.06
71643;BME280;59438;45.014;39.006;2022-11-14T02:50:25;102128.34;;;8.86;71.50
71643;BME280;59438;45.014;39.006;2022-11-14T02:52:51;102111.81;;;8.77;71.42
71643;BME280;59438;45.014;39.006;2022-11-14T02:55:19;102110.06;;;8.80;71.50
71643;BME280;59438;45.014;39.006;2022-11-14T02:57:45;102097.84;;;8.75;71.30
71643;BME280;59438;45.014;39.006;2022-11-14T03:00:13;102090.91;;;8.75;71.27
71643;BME280;59438;45.014;39.006;2022-11-14T03:02:39;102092.66;;;8.72;71.28
71643;BME280;59438;45.014;39.006;2022-11-14T03:05:06;102090.94;;;8.64;71.26
71643;BME280;59438;45.014;39.006;2022-11-14T03:07:32;102010.09;;;8.14;71.19
71643;BME280;59438;45.014;39.006;2022-11-14T03:09:59;102098.84;;;8.61;71.24
71643;BME280;59438;45.014;39.006;2022-11-14T03:12:27;102094.50;;;8.57;71.43
71643;BME280;59438;45.014;39.006;2022-11-14T03:14:53;102090.16;;;8.52;71.33
71643;BME280;59438;45.014;39.006;2022-11-14T03:17:19;102089.31;;;8.48;71.38
71643;BME280;59438;45.014;39.006;2022-11-14T03:19:46;102091.09;;;8.43;71.67
71643;BME280;59438;45.014;39.006;2022-11-14T03:22:12;102093.72;;;8.37;71.85
71643;BME280;59438;45.014;39.006;2022-11-14T03:24:39;102090.25;;;8.32;71.93
71643;BME280;59438;45.014;39.006;2022-11-14T03:27:05;102098.13;;;8.25;72.03
71643;BME280;59438;45.014;39.006;2022-11-14T03:29:33;102105.16;;;8.22;72.05
71643;BME280;59438;45.014;39.006;2022-11-14T03:31:59;102102.53;;;8.17;71.97
71643;BME280;59438;45.014;39.006;2022-11-14T03:34:26;102110.41;;;8.14;72.30
71643;BME280;59438;45.014;39.006;2022-11-14T03:36:52;102112.16;;;8.12;72.48
71643;BME280;59438;45.014;39.006;2022-11-14T03:39:19;102111.28;;;8.13;72.34
71643;BME280;59438;45.014;39.006;2022-11-14T03:41:45;102122.63;;;8.11;72.23
71643;BME280;59438;45.014;39.006;2022-11-14T03:44:11;102129.59;;;8.13;72.56
71643;BME280;59438;45.014;39.006;2022-11-14T03:46:39;102122.63;;;8.12;72.36
71643;BME280;59438;45.014;39.006;2022-11-14T03:49:06;102121.75;;;8.13;72.35
71643;BME280;59438;45.014;39.006;2022-11-14T03:51:32;102125.25;;;8.12;72.55
71643;BME280;59438;45.014;39.006;2022-11-14T03:53:58;102129.63;;;8.12;72.78
71643;BME280;59438;45.014;39.006;2022-11-14T03:56:25;102134.00;;;8.08;72.55
71643;BME280;59438;45.014;39.006;2022-11-14T03:58:51;102138.38;;;8.07;72.59
71643;BME280;59438;45.014;39.006;2022-11-14T04:01:18;102128.78;;;8.03;72.56
71643;BME280;59438;45.014;39.006;2022-11-14T04:03:45;102140.13;;;8.05;72.83
71643;BME280;59438;45.014;39.006;2022-11-14T04:06:12;102140.97;;;8.04;72.41
71643;BME280;59438;45.014;39.006;2022-11-14T04:08:39;102147.06;;;8.05;72.69
71643;BME280;59438;45.014;39.006;2022-11-14T04:11:05;102154.06;;;8.06;72.64
71643;BME280;59438;45.014;39.006;2022-11-14T04:13:32;102155.81;;;8.05;72.50
71643;BME280;59438;45.014;39.006;2022-11-14T04:15:58;102160.16;;;8.06;73.02
71643;BME280;59438;45.014;39.006;2022-11-14T04:18:25;102166.25;;;8.12;72.83
71643;BME280;59438;45.014;39.006;2022-11-14T04:20:54;102167.13;;;8.12;73.52
71643;BME280;59438;45.014;39.006;2022-11-14T04:23:20;102161.00;;;8.15;73.18
71643;BME280;59438;45.014;39.006;2022-11-14T04:25:47;102168.84;;;8.18;73.17
71643;BME280;59438;45.014;39.006;2022-11-14T04:28:13;102166.22;;;8.19;73.00
71643;BME280;59438;45.014;39.006;2022-11-14T04:30:40;102158.38;;;8.22;73.50
71643;BME280;59438;45.014;39.006;2022-11-14T04:33:06;102165.31;;;8.25;73.01
71643;BME280;59438;45.014;39.006;2022-11-14T04:35:32;102172.31;;;8.24;73.07
71643;BME280;59438;45.014;39.006;2022-11-14T04:38:00;102181.88;;;8.32;73.50
71643;BME280;59438;45.014;39.006;2022-11-14T04:40:27;102181.00;;;8.34;73.01
71643;BME280;59438;45.014;39.006;2022-11-14T04:42:53;102185.34;;;8.37;72.92
71643;BME280;59438;45.014;39.006;2022-11-14T04:45:20;102172.25;;;8.40;73.24
71643;BME280;59438;45.014;39.006;2022-11-14T04:47:46;102182.75;;;8.43;73.16
71643;BME280;59438;45.014;39.006;2022-11-14T04:50:12;102184.47;;;8.45;73.10
71643;BME280;59438;45.014;39.006;2022-11-14T04:52:39;102191.44;;;8.48;72.77
71643;BME280;59438;45.014;39.006;2022-11-14T04:55:07;102185.34;;;8.51;73.24
71643;BME280;59438;45.014;39.006;2022-11-14T04:57:34;102184.44;;;8.53;73.20
71643;BME280;59438;45.014;39.006;2022-11-14T05:00:01;102180.94;;;8.54;72.98
71643;BME280;59438;45.014;39.006;2022-11-14T05:02:29;102187.91;;;8.58;73.40
71643;BME280;59438;45.014;39.006;2022-11-14T05:04:56;102190.50;;;8.61;72.72
71643;BME280;59438;45.014;39.006;2022-11-14T05:07:22;102200.97;;;8.64;72.73
71643;BME280;59438;45.014;39.006;2022-11-14T05:09:49;102191.38;;;8.63;72.56
71643;BME280;59438;45.014;39.006;2022-11-14T05:12:16;102206.16;;;8.72;73.17
71643;BME280;59438;45.014;39.006;2022-11-14T05:14:43;102218.38;;;8.75;72.66
71643;BME280;59438;45.014;39.006;2022-11-14T05:17:09;102219.25;;;8.78;72.78
71643;BME280;59438;45.014;39.006;2022-11-14T05:19:36;102220.09;;;8.82;72.43
71643;BME280;59438;45.014;39.006;2022-11-14T05:22:02;102216.59;;;8.84;72.75
71643;BME280;59438;45.014;39.006;2022-11-14T05:24:28;102222.69;;;8.88;72.30
71643;BME280;59438;45.014;39.006;2022-11-14T05:26:55;102224.41;;;8.91;72.52
71643;BME280;59438;45.014;39.006;2022-11-14T05:29:23;102227.03;;;8.92;72.51
71643;BME280;59438;45.014;39.006;2022-11-14T05:31:49;102234.84;;;8.98;72.40
71643;BME280;59438;45.014;39.006;2022-11-14T05:34:15;102227.00;;;8.95;72.29
71643;BME280;59438;45.014;39.006;2022-11-14T05:36:42;102239.19;;;9.02;72.33
71643;BME280;59438;45.014;39.006;2022-11-14T05:39:08;102230.47;;;9.00;72.25
71643;BME280;59438;45.014;39.006;2022-11-14T05:41:35;102234.81;;;9.06;72.75
71643;BME280;59438;45.014;39.006;2022-11-14T05:44:03;102247.88;;;9.09;72.37
71643;BME280;59438;45.014;39.006;2022-11-14T05:46:31;102235.63;;;9.10;72.58
71643;BME280;59438;45.014;39.006;2022-11-14T05:48:58;102233.00;;;9.14;72.43
71643;BME280;59438;45.014;39.006;2022-11-14T05:51:24;102230.34;;;9.17;72.67
71643;BME280;59438;45.014;39.006;2022-11-14T05:53:50;102231.22;;;9.18;71.82
71643;BME280;59438;45.014;39.006;2022-11-14T05:56:17;102238.13;;;9.26;72.46
71643;BME280;59438;45.014;39.006;2022-11-14T05:58:43;102239.00;;;9.30;71.71
71643;BME280;59438;45.014;39.006;2022-11-14T06:01:12;102224.97;;;9.34;71.74
71643;BME280;59438;45.014;39.006;2022-11-14T06:03:41;102211.06;;;9.26;72.14
71643;BME280;59438;45.014;39.006;2022-11-14T06:06:10;102230.19;;;9.42;72.25
71643;BME280;59438;45.014;39.006;2022-11-14T06:08:36;102232.75;;;9.48;72.13
71643;BME280;59438;45.014;39.006;2022-11-14T06:11:04;102230.09;;;9.53;72.13
71643;BME280;59438;45.014;39.006;2022-11-14T06:13:30;102234.41;;;9.58;71.77
71643;BME280;59438;45.014;39.006;2022-11-14T06:15:58;102239.63;;;9.63;71.95
71643;BME280;59438;45.014;39.006;2022-11-14T06:18:25;102243.09;;;9.68;71.74
71643;BME280;59438;45.014;39.006;2022-11-14T06:20:53;102245.72;;;9.68;71.61
71643;BME280;59438;45.014;39.006;2022-11-14T06:23:19;102245.66;;;9.71;71.73
71643;BME280;59438;45.014;39.006;2022-11-14T06:25:46;102232.56;;;9.71;71.52
71643;BME280;59438;45.014;39.006;2022-11-14T06:28:13;102243.00;;;9.77;71.37
71643;BME280;59438;45.014;39.006;2022-11-14T06:30:40;102243.84;;;9.82;71.35
71643;BME280;59438;45.014;39.006;2022-11-14T06:33:06;102242.94;;;9.83;71.69
71643;BME280;59438;45.014;39.006;2022-11-14T06:35:32;102234.16;;;9.86;71.58
71643;BME280;59438;45.014;39.006;2022-11-14T06:38:00;102233.28;;;9.87;71.24
71643;BME280;59438;45.014;39.006;2022-11-14T06:40:27;102237.63;;;9.88;72.13
71643;BME280;59438;45.014;39.006;2022-11-14T06:42:54;102235.03;;;9.86;71.63
71643;BME280;59438;45.014;39.006;2022-11-14T06:45:21;102242.81;;;9.96;71.81
71643;BME280;59438;45.014;39.006;2022-11-14T06:47:47;102226.16;;;10.00;71.81
71643;BME280;59438;45.014;39.006;2022-11-14T06:50:14;102239.19;;;10.07;72.28
71643;BME280;59438;45.014;39.006;2022-11-14T06:52:40;102233.88;;;10.15;71.46
71643;BME280;59438;45.014;39.006;2022-11-14T06:55:08;102235.53;;;10.22;71.01
71643;BME280;59438;45.014;39.006;2022-11-14T06:57:35;102229.34;;;10.28;71.61
71643;BME280;59438;45.014;39.006;2022-11-14T07:00:01;102220.56;;;10.29;70.96
71643;BME280;59438;45.014;39.006;2022-11-14T07:02:28;102224.97;;;10.28;71.13
71643;BME280;59438;45.014;39.006;2022-11-14T07:04:54;102229.31;;;10.34;71.71
71643;BME280;59438;45.014;39.006;2022-11-14T07:07:24;102232.81;;;10.35;70.95
71643;BME280;59438;45.014;39.006;2022-11-14T07:09:50;102232.78;;;10.36;70.68
71643;BME280;59438;45.014;39.006;2022-11-14T07:12:18;102239.75;;;10.39;71.64
71643;BME280;59438;45.014;39.006;2022-11-14T07:14:44;102240.63;;;10.39;71.55
71643;BME280;59438;45.014;39.006;2022-11-14T07:17:11;102231.81;;;10.43;71.77
71643;BME280;59438;45.014;39.006;2022-11-14T07:19:37;102239.66;;;10.48;71.80
71643;BME280;59438;45.014;39.006;2022-11-14T07:22:03;102245.72;;;10.53;71.30
71643;BME280;59438;45.014;39.006;2022-11-14T07:24:30;102239.47;;;10.60;71.15
71643;BME280;59438;45.014;39.006;2022-11-14T07:26:56;102241.16;;;10.67;71.19
71643;BME280;59438;45.014;39.006;2022-11-14T07:29:24;102236.69;;;10.73;71.33
71643;BME280;59438;45.014;39.006;2022-11-14T07:31:50;102240.09;;;10.81;71.18
71643;BME280;59438;45.014;39.006;2022-11-14T07:34:17;102236.53;;;10.86;71.48
71643;BME280;59438;45.014;39.006;2022-11-14T07:36:43;102230.31;;;10.92;71.00
71643;BME280;59438;45.014;39.006;2022-11-14T07:39:09;102221.50;;;10.96;71.21
71643;BME280;59438;45.014;39.006;2022-11-14T07:41:36;102226.69;;;11.01;70.48
71643;BME280;59438;45.014;39.006;2022-11-14T07:44:02;102227.53;;;11.03;70.98
71643;BME280;59438;45.014;39.006;2022-11-14T07:46:30;102223.09;;;11.06;69.85
71643;BME280;59438;45.014;39.006;2022-11-14T07:48:57;102224.81;;;11.09;70.22
71643;BME280;59438;45.014;39.006;2022-11-14T07:51:23;102222.16;;;11.12;70.14
71643;BME280;59438;45.014;39.006;2022-11-14T07:53:51;102218.56;;;11.16;69.83
71643;BME280;59438;45.014;39.006;2022-11-14T07:56:17;102214.97;;;11.22;70.08
71643;BME280;59438;45.014;39.006;2022-11-14T07:58:44;102225.38;;;11.29;69.51
71643;BME280;59438;45.014;39.006;2022-11-14T08:01:11;102223.56;;;11.35;69.80
71643;BME280;59438;45.014;39.006;2022-11-14T08:03:40;102228.75;;;11.38;69.73
71643;BME280;59438;45.014;39.006;2022-11-14T08:06:08;102224.34;;;11.38;69.55
71643;BME280;59438;45.014;39.006;2022-11-14T08:08:35;102232.22;;;11.40;69.35
71643;BME280;59438;45.014;39.006;2022-11-14T08:11:01;102224.31;;;11.41;69.09
71643;BME280;59438;45.014;39.006;2022-11-14T08:13:28;102220.75;;;11.45;68.71
71643;BME280;59438;45.014;39.006;2022-11-14T08:15:55;102225.06;;;11.48;69.33
71643;BME280;59438;45.014;39.006;2022-11-14T08:18:22;102232.09;;;11.47;68.96
71643;BME280;59438;45.014;39.006;2022-11-14T08:20:49;102231.13;;;11.53;68.53
71643;BME280;59438;45.014;39.006;2022-11-14T08:23:16;102226.72;;;11.55;68.92
71643;BME280;59438;45.014;39.006;2022-11-14T08:25:42;102230.25;;;11.53;68.85
71643;BME280;59438;45.014;39.006;2022-11-14T08:28:09;102229.47;;;11.49;68.53
71643;BME280;59438;45.014;39.006;2022-11-14T08:30:36;102229.50;;;11.46;68.30
71643;BME280;59438;45.014;39.006;2022-11-14T08:33:03;102224.22;;;11.46;68.02
71643;BME280;59438;45.014;39.006;2022-11-14T08:35:31;102223.34;;;11.47;68.22
71643;BME280;59438;45.014;39.006;2022-11-14T08:37:59;102227.69;;;11.48;68.40
71643;BME280;59438;45.014;39.006;2022-11-14T08:40:26;102224.22;;;11.47;68.42
71643;BME280;59438;45.014;39.006;2022-11-14T08:42:58;102222.41;;;11.49;67.60
71643;BME280;59438;45.014;39.006;2022-11-14T08:45:24;102222.41;;;11.49;68.18
71643;BME280;59438;45.014;39.006;2022-11-14T08:47:51;102215.41;;;11.48;68.17
71643;BME280;59438;45.014;39.006;2022-11-14T08:50:17;102217.19;;;11.46;68.13
71643;BME280;59438;45.014;39.006;2022-11-14T08:52:48;102215.50;;;11.42;68.01
71643;BME280;59438;45.014;39.006;2022-11-14T08:55:16;102203.34;;;11.37;68.44
71643;BME280;59438;45.014;39.006;2022-11-14T08:57:43;102199.91;;;11.30;68.29
71643;BME280;59438;45.014;39.006;2022-11-14T09:00:10;102198.13;;;11.34;67.93
71643;BME280;59438;45.014;39.006;2022-11-14T09:02:36;102201.72;;;11.28;68.55
71643;BME280;59438;45.014;39.006;2022-11-14T09:05:03;102192.19;;;11.22;68.42
71643;BME280;59438;45.014;39.006;2022-11-14T09:07:30;102195.66;;;11.23;68.21
71643;BME280;59438;45.014;39.006;2022-11-14T09:09:57;102198.31;;;11.23;68.21
71643;BME280;59438;45.014;39.006;2022-11-14T09:12:25;102198.19;;;11.29;68.69
71643;BME280;59438;45.014;39.006;2022-11-14T09:14:51;102188.50;;;11.33;68.11
71643;BME280;59438;45.014;39.006;2022-11-14T09:17:17;102192.75;;;11.41;67.63
71643;BME280;59438;45.014;39.006;2022-11-14T09:19:44;102190.84;;;11.49;67.42
71643;BME280;59438;45.014;39.006;2022-11-14T09:22:10;102192.41;;;11.60;67.16
71643;BME280;59438;45.014;39.006;2022-11-14T09:24:36;102191.38;;;11.68;67.10
71643;BME280;59438;45.014;39.006;2022-11-14T09:27:03;102179.91;;;11.73;66.46
71643;BME280;59438;45.014;39.006;2022-11-14T09:29:31;102185.81;;;11.84;65.46
71643;BME280;59438;45.014;39.006;2022-11-14T09:31:57;102185.72;;;11.92;65.83
71643;BME280;59438;45.014;39.006;2022-11-14T09:34:23;102182.94;;;11.99;65.90
71643;BME280;59438;45.014;39.006;2022-11-14T09:36:50;102174.94;;;12.05;65.64
71643;BME280;59438;45.014;39.006;2022-11-14T09:39:16;102166.91;;;12.12;65.49
71643;BME280;59438;45.014;39.006;2022-11-14T09:41:55;102169.41;;;12.18;63.72
71643;BME280;59438;45.014;39.006;2022-11-14T09:44:37;102164.13;;;12.19;63.89
71643;BME280;59438;45.014;39.006;2022-11-14T09:47:10;102171.19;;;12.17;64.78
71643;BME280;59438;45.014;39.006;2022-11-14T09:49:38;102181.66;;;12.20;64.96
71643;BME280;59438;45.014;39.006;2022-11-14T09:52:13;102179.94;;;12.19;64.19
71643;BME280;59438;45.014;39.006;2022-11-14T09:54:46;102179.13;;;12.14;64.20
71643;BME280;59438;45.014;39.006;2022-11-14T09:57:17;102174.91;;;12.07;65.03
71643;BME280;59438;45.014;39.006;2022-11-14T09:59:45;102172.38;;;12.01;64.92
71643;BME280;59438;45.014;39.006;2022-11-14T10:02:22;102165.44;;;11.97;64.62
71643;BME280;59438;45.014;39.006;2022-11-14T10:04:59;102166.34;;;11.96;65.16
71643;BME280;59438;45.014;39.006;2022-11-14T10:07:36;102175.03;;;11.99;65.37
71643;BME280;59438;45.014;39.006;2022-11-14T10:10:14;102162.69;;;12.03;64.12
71643;BME280;59438;45.014;39.006;2022-11-14T10:12:57;102159.88;;;12.10;64.54
71643;BME280;59438;45.014;39.006;2022-11-14T10:15:33;102147.47;;;12.17;64.42
71643;BME280;59438;45.014;39.006;2022-11-14T10:18:27;102152.41;;;12.33;63.47
71643;BME280;59438;45.014;39.006;2022-11-14T10:21:03;102146.84;;;12.46;63.59
71643;BME280;59438;45.014;39.006;2022-11-14T10:23:39;102145.53;;;12.66;62.06
71643;BME280;59438;45.014;39.006;2022-11-14T10:26:16;102139.13;;;12.78;61.30
71643;BME280;59438;45.014;39.006;2022-11-14T10:28:54;102136.31;;;12.84;60.87
71643;BME280;59438;45.014;39.006;2022-11-14T10:31:33;102139.00;;;12.82;60.77
71643;BME280;59438;45.014;39.006;2022-11-14T10:34:07;102144.34;;;12.81;61.42
71643;BME280;59438;45.014;39.006;2022-11-14T10:36:46;102125.25;;;12.69;60.67
71643;BME280;59438;45.014;39.006;2022-11-14T10:39:18;102117.44;;;12.65;61.06
71643;BME280;59438;45.014;39.006;2022-11-14T10:41:48;102145.34;;;12.75;61.30
71643;BME280;59438;45.014;39.006;2022-11-14T10:44:20;102119.38;;;12.58;61.19
71643;BME280;59438;45.014;39.006;2022-11-14T10:46:52;102126.03;;;12.73;61.12
71643;BME280;59438;45.014;39.006;2022-11-14T10:49:21;102124.94;;;12.82;61.52
71643;BME280;59438;45.014;39.006;2022-11-14T10:51:50;102116.00;;;12.89;61.00
71643;BME280;59438;45.014;39.006;2022-11-14T10:54:21;102122.66;;;13.05;60.62
71643;BME280;59438;45.014;39.006;2022-11-14T10:56:52;102125.75;;;13.21;60.26
71643;BME280;59438;45.014;39.006;2022-11-14T10:59:20;102122.94;;;13.29;61.17
71643;BME280;59438;45.014;39.006;2022-11-14T11:01:54;102122.75;;;13.37;58.42
71643;BME280;59438;45.014;39.006;2022-11-14T11:04:25;102125.50;;;13.32;58.36
71643;BME280;59438;45.014;39.006;2022-11-14T11:06:53;102114.34;;;13.19;59.85
71643;BME280;59438;45.014;39.006;2022-11-14T11:09:22;102118.19;;;13.07;59.75
71643;BME280;59438;45.014;39.006;2022-11-14T11:11:57;102115.78;;;12.98;59.09
71643;BME280;59438;45.014;39.006;2022-11-14T11:14:24;102103.72;;;12.88;60.68
71643;BME280;59438;45.014;39.006;2022-11-14T11:17:17;102117.28;;;13.08;58.60
71643;BME280;59438;45.014;39.006;2022-11-14T11:19:44;102116.13;;;13.19;60.71
71643;BME280;59438;45.014;39.006;2022-11-14T11:22:25;102107.81;;;13.36;58.06
71643;BME280;59438;45.014;39.006;2022-11-14T11:24:51;102105.66;;;13.50;60.07
71643;BME280;59438;45.014;39.006;2022-11-14T11:27:20;102090.81;;;13.46;58.33
71643;BME280;59438;45.014;39.006;2022-11-14T11:30:00;102114.22;;;13.60;58.38
71643;BME280;59438;45.014;39.006;2022-11-14T11:32:28;102117.84;;;13.56;58.27
71643;BME280;59438;45.014;39.006;2022-11-14T11:35:00;102107.47;;;13.48;58.21
71643;BME280;59438;45.014;39.006;2022-11-14T11:37:29;102083.56;;;13.20;58.38
71643;BME280;59438;45.014;39.006;2022-11-14T11:40:01;102109.88;;;13.23;57.96
71643;BME280;59438;45.014;39.006;2022-11-14T11:42:33;102101.44;;;13.08;58.03
71643;BME280;59438;45.014;39.006;2022-11-14T11:45:07;102097.41;;;12.95;58.44
71643;BME280;59438;45.014;39.006;2022-11-14T11:47:38;102105.47;;;12.89;58.33
71643;BME280;59438;45.014;39.006;2022-11-14T11:50:14;102089.72;;;12.84;57.91
71643;BME280;59438;45.014;39.006;2022-11-14T11:52:44;102098.25;;;12.96;58.29
71643;BME280;59438;45.014;39.006;2022-11-14T11:55:16;102087.75;;;12.94;57.87
71643;BME280;59438;45.014;39.006;2022-11-14T11:57:47;102092.78;;;13.03;58.15
71643;BME280;59438;45.014;39.006;2022-11-14T12:00:18;102082.13;;;13.08;58.03
71643;BME280;59438;45.014;39.006;2022-11-14T12:02:48;102075.16;;;13.05;57.68
71643;BME280;59438;45.014;39.006;2022-11-14T12:05:16;102097.66;;;13.19;58.57
71643;BME280;59438;45.014;39.006;2022-11-14T12:07:48;102104.34;;;13.34;57.17
71643;BME280;59438;45.014;39.006;2022-11-14T12:10:19;102098.28;;;13.30;56.67
71643;BME280;59438;45.014;39.006;2022-11-14T12:13:03;102113.22;;;13.31;55.87
71643;BME280;59438;45.014;39.006;2022-11-14T12:15:42;102104.75;;;13.17;56.06
71643;BME280;59438;45.014;39.006;2022-11-14T12:18:48;102094.59;;;13.01;56.61
71643;BME280;59438;45.014;39.006;2022-11-14T12:21:33;102106.88;;;13.02;56.32
71643;BME280;59438;45.014;39.006;2022-11-14T12:24:37;102106.97;;;12.99;56.62
71643;BME280;59438;45.014;39.006;2022-11-14T12:27:18;102103.56;;;12.94;56.65
71643;BME280;59438;45.014;39.006;2022-11-14T12:30:02;102107.19;;;12.90;56.57
71643;BME280;59438;45.014;39.006;2022-11-14T12:32:32;102107.25;;;12.87;57.27
71643;BME280;59438;45.014;39.006;2022-11-14T12:35:06;102105.59;;;12.83;57.00
71643;BME280;59438;45.014;39.006;2022-11-14T12:37:41;102109.22;;;12.79;57.63
71643;BME280;59438;45.014;39.006;2022-11-14T12:40:21;102108.38;;;12.77;57.13
71643;BME280;59438;45.014;39.006;2022-11-14T12:42:50;102098.81;;;12.73;58.18
71643;BME280;59438;45.014;39.006;2022-11-14T12:48:30;102101.66;;;12.63;57.50
71643;BME280;59438;45.014;39.006;2022-11-14T12:50:59;102102.63;;;12.59;57.61
71643;BME280;59438;45.014;39.006;2022-11-14T12:53:42;102110.50;;;12.61;56.86
71643;BME280;59438;45.014;39.006;2022-11-14T12:59:27;102092.59;;;12.38;57.07